sensor_id;sensor_type;location;lat;lon;timestamp;pressure;altitude;pressure_sealevel;temperature;humidity
19508;BME280;40157;42.566;27.526;2023-03-14T00:01:30;101460.94;;;5.67;66.51
19508;BME280;40157;42.566;27.526;2023-03-14T00:03:31;101512.03;;;6.01;66.51
19508;BME280;40157;42.566;27.526;2023-03-14T00:05:33;101511.44;;;6.06;66.30
19508;BME280;40157;42.566;27.526;2023-03-14T00:07:36;101526.13;;;6.24;66.28
19508;BME280;40157;42.566;27.526;2023-03-14T00:09:36;101511.56;;;6.09;66.60
19508;BME280;40157;42.566;27.526;2023-03-14T00:11:37;101407.03;;;5.45;66.77
19508;BME280;40157;42.566;27.526;2023-03-14T00:13:37;101519.44;;;6.11;67.04
19508;BME280;40157;42.566;27.526;2023-03-14T00:15:38;101517.44;;;6.05;66.81
19508;BME280;40157;42.566;27.526;2023-03-14T00:17:39;101534.31;;;6.14;66.91
19508;BME280;40157;42.566;27.526;2023-03-14T00:19:39;101523.53;;;6.06;66.90
19508;BME280;40157;42.566;27.526;2023-03-14T00:21:40;101505.94;;;6.00;66.85
19508;BME280;40157;42.566;27.526;2023-03-14T00:23:41;101511.56;;;6.09;67.03
19508;BME280;40157;42.566;27.526;2023-03-14T00:25:42;101524.78;;;6.14;66.71
19508;BME280;40157;42.566;27.526;2023-03-14T00:27:42;101441.31;;;5.73;66.80
19508;BME280;40157;42.566;27.526;2023-03-14T00:29:43;101434.72;;;5.62;67.02
19508;BME280;40157;42.566;27.526;2023-03-14T00:31:44;101493.00;;;6.02;67.11
19508;BME280;40157;42.566;27.526;2023-03-14T00:33:44;101450.94;;;5.74;66.84
19508;BME280;40157;42.566;27.526;2023-03-14T00:36:00;101462.63;;;5.84;66.60
19508;BME280;40157;42.566;27.526;2023-03-14T00:38:01;101492.50;;;5.92;66.76
19508;BME280;40157;42.566;27.526;2023-03-14T00:40:01;101480.91;;;5.86;66.95
19508;BME280;40157;42.566;27.526;2023-03-14T00:42:02;101405.91;;;5.40;67.31
19508;BME280;40157;42.566;27.526;2023-03-14T00:44:03;101367.00;;;5.23;67.33
19508;BME280;40157;42.566;27.526;2023-03-14T00:46:04;101498.72;;;5.95;67.46
19508;BME280;40157;42.566;27.526;2023-03-14T00:48:05;101437.78;;;5.53;67.54
19508;BME280;40157;42.566;27.526;2023-03-14T00:50:06;101365.19;;;5.22;67.45
19508;BME280;40157;42.566;27.526;2023-03-14T00:52:06;101340.38;;;5.11;67.61
19508;BME280;40157;42.566;27.526;2023-03-14T00:54:07;101425.00;;;5.58;67.66
19508;BME280;40157;42.566;27.526;2023-03-14T00:56:09;101463.53;;;5.85;67.73
19508;BME280;40157;42.566;27.526;2023-03-14T00:58:13;101326.13;;;5.03;67.76
19508;BME280;40157;42.566;27.526;2023-03-14T01:00:14;101455.66;;;5.65;68.00
19508;BME280;40157;42.566;27.526;2023-03-14T01:02:14;101478.06;;;5.80;68.45
19508;BME280;40157;42.566;27.526;2023-03-14T01:04:15;101431.72;;;5.54;68.50
19508;BME280;40157;42.566;27.526;2023-03-14T01:06:17;101428.47;;;5.59;68.69
19508;BME280;40157;42.566;27.526;2023-03-14T01:08:18;101405.31;;;5.45;68.71
19508;BME280;40157;42.566;27.526;2023-03-14T01:10:19;101447.06;;;5.66;68.97
19508;BME280;40157;42.566;27.526;2023-03-14T01:12:19;101444.06;;;5.77;69.24
19508;BME280;40157;42.566;27.526;2023-03-14T01:14:20;101453.66;;;5.78;69.33
19508;BME280;40157;42.566;27.526;2023-03-14T01:16:22;101434.47;;;5.75;69.68
19508;BME280;40157;42.566;27.526;2023-03-14T01:18:23;101426.44;;;5.71;69.73
19508;BME280;40157;42.566;27.526;2023-03-14T01:20:25;101422.97;;;5.70;69.65
19508;BME280;40157;42.566;27.526;2023-03-14T01:22:25;101402.47;;;5.59;69.54
19508;BME280;40157;42.566;27.526;2023-03-14T01:24:26;101438.03;;;5.78;69.56
19508;BME280;40157;42.566;27.526;2023-03-14T01:26:29;101434.47;;;5.75;69.97
19508;BME280;40157;42.566;27.526;2023-03-14T01:28:30;101420.81;;;5.62;70.26
19508;BME280;40157;42.566;27.526;2023-03-14T01:30:30;101431.72;;;5.72;70.29
19508;BME280;40157;42.566;27.526;2023-03-14T01:32:31;101431.56;;;5.69;70.68
19508;BME280;40157;42.566;27.526;2023-03-14T01:34:31;101408.28;;;5.53;70.75
19508;BME280;40157;42.566;27.526;2023-03-14T01:36:32;101423.13;;;5.55;70.85
19508;BME280;40157;42.566;27.526;2023-03-14T01:38:33;101437.06;;;5.75;71.12
19508;BME280;40157;42.566;27.526;2023-03-14T01:40:41;101407.81;;;5.62;70.94
19508;BME280;40157;42.566;27.526;2023-03-14T01:43:04;101424.75;;;5.71;71.69
19508;BME280;40157;42.566;27.526;2023-03-14T01:47:45;101403.19;;;5.56;71.61
19508;BME280;40157;42.566;27.526;2023-03-14T01:50:09;101430.47;;;5.64;71.17
19508;BME280;40157;42.566;27.526;2023-03-14T01:52:39;101439.13;;;5.63;70.20
19508;BME280;40157;42.566;27.526;2023-03-14T01:54:44;101437.84;;;5.55;69.26
19508;BME280;40157;42.566;27.526;2023-03-14T01:56:52;101423.66;;;5.30;69.15
19508;BME280;40157;42.566;27.526;2023-03-14T01:58:54;101395.66;;;5.07;69.20
19508;BME280;40157;42.566;27.526;2023-03-14T02:00:57;101430.63;;;5.13;69.50
19508;BME280;40157;42.566;27.526;2023-03-14T02:03:16;101440.78;;;5.09;69.53
19508;BME280;40157;42.566;27.526;2023-03-14T02:05:22;101440.63;;;5.06;70.05
19508;BME280;40157;42.566;27.526;2023-03-14T02:07:30;101421.75;;;4.92;70.33
19508;BME280;40157;42.566;27.526;2023-03-14T02:09:32;101418.16;;;4.72;70.28
19508;BME280;40157;42.566;27.526;2023-03-14T02:11:33;101433.91;;;4.75;70.04
19508;BME280;40157;42.566;27.526;2023-03-14T02:13:33;101453.59;;;4.71;70.36
19508;BME280;40157;42.566;27.526;2023-03-14T02:15:34;101455.66;;;4.60;70.18
19508;BME280;40157;42.566;27.526;2023-03-14T02:17:35;101461.81;;;4.46;70.68
19508;BME280;40157;42.566;27.526;2023-03-14T02:19:50;101455.81;;;4.31;70.83
19508;BME280;40157;42.566;27.526;2023-03-14T02:22:09;101419.16;;;3.92;71.27
19508;BME280;40157;42.566;27.526;2023-03-14T02:24:18;101453.78;;;4.08;71.66
19508;BME280;40157;42.566;27.526;2023-03-14T02:26:26;101454.31;;;4.03;71.82
19508;BME280;40157;42.566;27.526;2023-03-14T02:28:28;101450.09;;;3.88;72.06
19508;BME280;40157;42.566;27.526;2023-03-14T02:30:31;101452.59;;;3.87;71.88
19508;BME280;40157;42.566;27.526;2023-03-14T02:32:34;101448.69;;;3.79;72.46
19508;BME280;40157;42.566;27.526;2023-03-14T02:34:36;101429.63;;;3.62;72.54
19508;BME280;40157;42.566;27.526;2023-03-14T02:36:37;101444.25;;;3.61;72.71
19508;BME280;40157;42.566;27.526;2023-03-14T02:38:51;101424.66;;;3.35;73.25
19508;BME280;40157;42.566;27.526;2023-03-14T02:40:54;101432.19;;;3.30;73.55
19508;BME280;40157;42.566;27.526;2023-03-14T02:42:54;101446.94;;;3.31;74.14
19508;BME280;40157;42.566;27.526;2023-03-14T02:45:01;101443.25;;;3.28;74.12
19508;BME280;40157;42.566;27.526;2023-03-14T02:47:23;101422.91;;;3.04;74.73
19508;BME280;40157;42.566;27.526;2023-03-14T02:49:28;101442.72;;;3.19;74.75
19508;BME280;40157;42.566;27.526;2023-03-14T02:51:31;101428.81;;;3.02;75.62
19508;BME280;40157;42.566;27.526;2023-03-14T02:53:36;101415.97;;;2.88;76.11
19508;BME280;40157;42.566;27.526;2023-03-14T02:55:37;101456.84;;;3.09;76.45
19508;BME280;40157;42.566;27.526;2023-03-14T02:57:38;101477.03;;;3.14;76.52
19508;BME280;40157;42.566;27.526;2023-03-14T02:59:38;101427.38;;;2.92;76.13
19508;BME280;40157;42.566;27.526;2023-03-14T03:01:38;101446.31;;;3.21;76.31
19508;BME280;40157;42.566;27.526;2023-03-14T03:03:39;101437.91;;;3.25;76.73
19508;BME280;40157;42.566;27.526;2023-03-14T03:05:40;101443.59;;;3.34;76.58
19508;BME280;40157;42.566;27.526;2023-03-14T03:07:40;101411.66;;;3.19;76.92
19508;BME280;40157;42.566;27.526;2023-03-14T03:09:41;101437.72;;;3.37;76.37
19508;BME280;40157;42.566;27.526;2023-03-14T03:11:41;101453.25;;;3.51;76.49
19508;BME280;40157;42.566;27.526;2023-03-14T03:13:41;101419.38;;;3.48;76.21
19508;BME280;40157;42.566;27.526;2023-03-14T03:15:42;101408.81;;;3.45;75.82
19508;BME280;40157;42.566;27.526;2023-03-14T03:17:43;101438.91;;;3.73;75.03
19508;BME280;40157;42.566;27.526;2023-03-14T03:19:44;101343.53;;;3.21;75.44
19508;BME280;40157;42.566;27.526;2023-03-14T03:21:44;101421.19;;;3.66;75.14
19508;BME280;40157;42.566;27.526;2023-03-14T03:23:45;101430.81;;;3.83;75.34
19508;BME280;40157;42.566;27.526;2023-03-14T03:25:49;101438.09;;;3.91;75.38
19508;BME280;40157;42.566;27.526;2023-03-14T03:27:50;101448.75;;;3.95;75.05
19508;BME280;40157;42.566;27.526;2023-03-14T03:29:50;101372.38;;;3.42;74.56
19508;BME280;40157;42.566;27.526;2023-03-14T03:31:52;101445.41;;;3.98;74.89
19508;BME280;40157;42.566;27.526;2023-03-14T03:33:53;101419.94;;;3.91;74.23
19508;BME280;40157;42.566;27.526;2023-03-14T03:35:53;101391.31;;;3.89;74.50
19508;BME280;40157;42.566;27.526;2023-03-14T03:37:54;101392.00;;;3.85;74.11
19508;BME280;40157;42.566;27.526;2023-03-14T03:39:54;101423.19;;;4.03;74.13
19508;BME280;40157;42.566;27.526;2023-03-14T03:41:55;101451.53;;;4.15;74.38
19508;BME280;40157;42.566;27.526;2023-03-14T03:43:55;101450.34;;;4.10;73.94
19508;BME280;40157;42.566;27.526;2023-03-14T03:45:56;101421.88;;;3.78;73.80
19508;BME280;40157;42.566;27.526;2023-03-14T03:47:56;101402.53;;;3.57;74.19
19508;BME280;40157;42.566;27.526;2023-03-14T03:49:57;101426.91;;;3.75;74.05
19508;BME280;40157;42.566;27.526;2023-03-14T03:51:58;101419.75;;;3.71;73.76
19508;BME280;40157;42.566;27.526;2023-03-14T03:53:59;101366.97;;;3.08;74.21
19508;BME280;40157;42.566;27.526;2023-03-14T03:55:59;101438.50;;;3.50;74.59
19508;BME280;40157;42.566;27.526;2023-03-14T03:58:01;101407.84;;;3.43;74.47
19508;BME280;40157;42.566;27.526;2023-03-14T04:00:02;101455.56;;;3.47;74.59
19508;BME280;40157;42.566;27.526;2023-03-14T04:02:04;101422.38;;;3.25;74.79
19508;BME280;40157;42.566;27.526;2023-03-14T04:04:04;101439.66;;;3.41;74.77
19508;BME280;40157;42.566;27.526;2023-03-14T04:06:10;101403.13;;;3.21;74.86
19508;BME280;40157;42.566;27.526;2023-03-14T04:08:11;101398.25;;;3.11;74.91
19508;BME280;40157;42.566;27.526;2023-03-14T04:10:12;101426.81;;;3.12;74.77
19508;BME280;40157;42.566;27.526;2023-03-14T04:12:12;101424.03;;;3.24;75.15
19508;BME280;40157;42.566;27.526;2023-03-14T04:14:13;101372.81;;;2.89;75.40
19508;BME280;40157;42.566;27.526;2023-03-14T04:16:24;101408.41;;;3.08;75.01
19508;BME280;40157;42.566;27.526;2023-03-14T04:18:25;101416.56;;;2.99;75.82
19508;BME280;40157;42.566;27.526;2023-03-14T04:20:26;101387.56;;;2.90;75.71
19508;BME280;40157;42.566;27.526;2023-03-14T04:22:26;101366.84;;;2.75;75.45
19508;BME280;40157;42.566;27.526;2023-03-14T04:24:27;101402.72;;;2.99;75.84
19508;BME280;40157;42.566;27.526;2023-03-14T04:26:27;101387.28;;;2.85;76.15
19508;BME280;40157;42.566;27.526;2023-03-14T04:28:28;101428.63;;;3.13;76.15
19508;BME280;40157;42.566;27.526;2023-03-14T04:30:29;101420.59;;;3.09;76.69
19508;BME280;40157;42.566;27.526;2023-03-14T04:32:29;101420.03;;;3.14;76.63
19508;BME280;40157;42.566;27.526;2023-03-14T04:34:30;101399.16;;;2.96;77.38
19508;BME280;40157;42.566;27.526;2023-03-14T04:36:30;101414.69;;;3.11;77.43
19508;BME280;40157;42.566;27.526;2023-03-14T04:38:31;101422.91;;;3.04;78.11
19508;BME280;40157;42.566;27.526;2023-03-14T04:40:32;101366.56;;;2.70;78.59
19508;BME280;40157;42.566;27.526;2023-03-14T04:42:32;101317.22;;;2.52;78.61
19508;BME280;40157;42.566;27.526;2023-03-14T04:44:35;101388.44;;;3.05;78.73
19508;BME280;40157;42.566;27.526;2023-03-14T04:46:36;101398.69;;;3.19;78.31
19508;BME280;40157;42.566;27.526;2023-03-14T04:48:36;101404.16;;;3.08;78.97
19508;BME280;40157;42.566;27.526;2023-03-14T04:50:38;101370.31;;;2.90;79.13
19508;BME280;40157;42.566;27.526;2023-03-14T04:52:39;101401.56;;;3.23;79.29
19508;BME280;40157;42.566;27.526;2023-03-14T04:54:39;101380.38;;;3.15;79.01
19508;BME280;40157;42.566;27.526;2023-03-14T04:56:39;101430.03;;;3.38;79.37
19508;BME280;40157;42.566;27.526;2023-03-14T04:58:40;101310.00;;;3.08;81.57
19508;BME280;40157;42.566;27.526;2023-03-14T05:00:40;101408.25;;;3.82;81.32
19508;BME280;40157;42.566;27.526;2023-03-14T05:02:41;101379.25;;;3.73;80.37
19508;BME280;40157;42.566;27.526;2023-03-14T05:04:41;101323.63;;;3.51;80.09
19508;BME280;40157;42.566;27.526;2023-03-14T05:06:42;101382.19;;;4.12;80.29
19508;BME280;40157;42.566;27.526;2023-03-14T05:08:42;101358.31;;;4.19;78.83
19508;BME280;40157;42.566;27.526;2023-03-14T05:10:43;101385.88;;;4.50;77.70
19508;BME280;40157;42.566;27.526;2023-03-14T05:12:43;101405.66;;;4.64;76.51
19508;BME280;40157;42.566;27.526;2023-03-14T05:14:44;101425.00;;;4.88;76.67
19508;BME280;40157;42.566;27.526;2023-03-14T05:16:44;101412.09;;;4.89;77.02
19508;BME280;40157;42.566;27.526;2023-03-14T05:18:44;101427.31;;;4.99;76.15
19508;BME280;40157;42.566;27.526;2023-03-14T05:20:45;101367.69;;;4.67;75.67
19508;BME280;40157;42.566;27.526;2023-03-14T05:22:46;101431.66;;;5.17;75.60
19508;BME280;40157;42.566;27.526;2023-03-14T05:24:46;101397.78;;;4.97;74.90
19508;BME280;40157;42.566;27.526;2023-03-14T05:26:47;101376.91;;;4.96;74.78
19508;BME280;40157;42.566;27.526;2023-03-14T05:28:47;101412.66;;;5.18;74.17
19508;BME280;40157;42.566;27.526;2023-03-14T05:30:48;101430.78;;;5.34;73.87
19508;BME280;40157;42.566;27.526;2023-03-14T05:32:48;101428.19;;;5.52;72.18
19508;BME280;40157;42.566;27.526;2023-03-14T05:34:49;101373.94;;;5.24;71.71
19508;BME280;40157;42.566;27.526;2023-03-14T05:36:49;101428.34;;;6.30;85.07
19508;BME280;40157;42.566;27.526;2023-03-14T05:38:50;101412.16;;;6.98;88.61
19508;BME280;40157;42.566;27.526;2023-03-14T05:40:51;101436.88;;;7.29;83.43
19508;BME280;40157;42.566;27.526;2023-03-14T05:42:51;101426.28;;;7.03;77.21
19508;BME280;40157;42.566;27.526;2023-03-14T05:44:52;101387.13;;;6.61;73.25
19508;BME280;40157;42.566;27.526;2023-03-14T05:46:55;101360.56;;;6.29;71.07
19508;BME280;40157;42.566;27.526;2023-03-14T05:48:59;101457.59;;;6.64;68.91
19508;BME280;40157;42.566;27.526;2023-03-14T05:51:02;101318.09;;;5.71;67.85
19508;BME280;40157;42.566;27.526;2023-03-14T05:53:03;101436.38;;;6.35;67.05
19508;BME280;40157;42.566;27.526;2023-03-14T05:55:04;101401.91;;;6.02;67.17
19508;BME280;40157;42.566;27.526;2023-03-14T05:57:05;101441.78;;;6.20;67.08
19508;BME280;40157;42.566;27.526;2023-03-14T05:59:06;101403.28;;;5.95;67.08
19508;BME280;40157;42.566;27.526;2023-03-14T06:01:08;101412.75;;;5.93;66.96
19508;BME280;40157;42.566;27.526;2023-03-14T06:03:09;101448.69;;;6.00;67.22
19508;BME280;40157;42.566;27.526;2023-03-14T06:05:09;101357.63;;;5.45;67.31
19508;BME280;40157;42.566;27.526;2023-03-14T06:07:10;101361.75;;;5.41;67.60
19508;BME280;40157;42.566;27.526;2023-03-14T06:09:10;101418.31;;;5.83;67.90
19508;BME280;40157;42.566;27.526;2023-03-14T06:11:11;101404.81;;;5.72;68.05
19508;BME280;40157;42.566;27.526;2023-03-14T06:13:11;101406.41;;;5.68;68.53
19508;BME280;40157;42.566;27.526;2023-03-14T06:15:12;101423.13;;;5.73;68.83
19508;BME280;40157;42.566;27.526;2023-03-14T06:17:12;101406.63;;;5.73;68.90
19508;BME280;40157;42.566;27.526;2023-03-14T06:19:13;101402.78;;;5.65;69.51
19508;BME280;40157;42.566;27.526;2023-03-14T06:21:13;101440.13;;;5.85;69.58
19508;BME280;40157;42.566;27.526;2023-03-14T06:23:14;101445.41;;;5.86;69.45
19508;BME280;40157;42.566;27.526;2023-03-14T06:25:14;101402.84;;;5.66;69.92
19508;BME280;40157;42.566;27.526;2023-03-14T06:27:15;101438.78;;;5.75;70.24
19508;BME280;40157;42.566;27.526;2023-03-14T06:29:15;101409.25;;;5.55;70.41
19508;BME280;40157;42.566;27.526;2023-03-14T06:31:16;101393.72;;;5.38;70.49
19508;BME280;40157;42.566;27.526;2023-03-14T06:33:17;101440.22;;;5.68;70.64
19508;BME280;40157;42.566;27.526;2023-03-14T06:35:17;101433.53;;;5.55;71.20
19508;BME280;40157;42.566;27.526;2023-03-14T06:37:18;101405.53;;;5.50;71.46
19508;BME280;40157;42.566;27.526;2023-03-14T06:39:18;101372.19;;;5.23;72.24
19508;BME280;40157;42.566;27.526;2023-03-14T06:41:19;101400.56;;;5.36;72.78
19508;BME280;40157;42.566;27.526;2023-03-14T06:43:19;101383.25;;;5.19;73.12
19508;BME280;40157;42.566;27.526;2023-03-14T06:45:20;101394.97;;;5.29;73.87
19508;BME280;40157;42.566;27.526;2023-03-14T06:47:20;101397.13;;;5.37;74.23
19508;BME280;40157;42.566;27.526;2023-03-14T06:49:21;101373.66;;;5.36;74.26
19508;BME280;40157;42.566;27.526;2023-03-14T06:51:22;101406.63;;;5.55;74.47
19508;BME280;40157;42.566;27.526;2023-03-14T06:53:22;101398.44;;;5.65;74.39
19508;BME280;40157;42.566;27.526;2023-03-14T06:55:22;101327.16;;;5.24;74.58
19508;BME280;40157;42.566;27.526;2023-03-14T06:57:23;101380.47;;;5.70;74.50
19508;BME280;40157;42.566;27.526;2023-03-14T06:59:24;101417.59;;;6.03;74.68
19508;BME280;40157;42.566;27.526;2023-03-14T07:01:27;101416.00;;;6.07;74.55
19508;BME280;40157;42.566;27.526;2023-03-14T07:03:27;101381.97;;;5.84;74.82
19508;BME280;40157;42.566;27.526;2023-03-14T07:05:28;101402.19;;;5.90;75.17
19508;BME280;40157;42.566;27.526;2023-03-14T07:07:29;101381.91;;;5.83;75.07
19508;BME280;40157;42.566;27.526;2023-03-14T07:09:29;101403.63;;;6.01;74.81
19508;BME280;40157;42.566;27.526;2023-03-14T07:11:30;101396.91;;;6.06;74.87
19508;BME280;40157;42.566;27.526;2023-03-14T07:13:30;101343.06;;;5.87;74.66
19508;BME280;40157;42.566;27.526;2023-03-14T07:15:31;101387.19;;;6.22;74.73
19508;BME280;40157;42.566;27.526;2023-03-14T07:17:31;101398.69;;;6.46;74.03
19508;BME280;40157;42.566;27.526;2023-03-14T07:19:32;101402.56;;;6.56;73.21
19508;BME280;40157;42.566;27.526;2023-03-14T07:21:32;101407.91;;;6.59;73.52
19508;BME280;40157;42.566;27.526;2023-03-14T07:23:35;101420.59;;;6.71;73.62
19508;BME280;40157;42.566;27.526;2023-03-14T07:25:35;101363.22;;;6.50;73.57
19508;BME280;40157;42.566;27.526;2023-03-14T07:27:35;101401.00;;;6.81;73.28
19508;BME280;40157;42.566;27.526;2023-03-14T07:29:36;101384.47;;;6.80;73.19
19508;BME280;40157;42.566;27.526;2023-03-14T07:31:36;101405.97;;;6.96;73.31
19508;BME280;40157;42.566;27.526;2023-03-14T07:33:37;101391.25;;;6.96;73.23
19508;BME280;40157;42.566;27.526;2023-03-14T07:35:37;101388.25;;;7.08;73.19
19508;BME280;40157;42.566;27.526;2023-03-14T07:37:38;101396.94;;;7.30;72.87
19508;BME280;40157;42.566;27.526;2023-03-14T07:39:38;101384.59;;;7.26;72.35
19508;BME280;40157;42.566;27.526;2023-03-14T07:41:39;101389.19;;;7.31;72.02
19508;BME280;40157;42.566;27.526;2023-03-14T07:43:39;101373.94;;;7.42;71.57
19508;BME280;40157;42.566;27.526;2023-03-14T07:45:40;101396.72;;;7.69;71.26
19508;BME280;40157;42.566;27.526;2023-03-14T07:47:41;101353.88;;;7.41;70.98
19508;BME280;40157;42.566;27.526;2023-03-14T07:49:41;101390.91;;;7.76;70.76
19508;BME280;40157;42.566;27.526;2023-03-14T07:51:42;101400.78;;;7.83;70.13
19508;BME280;40157;42.566;27.526;2023-03-14T07:53:44;101378.97;;;7.83;70.05
19508;BME280;40157;42.566;27.526;2023-03-14T07:55:46;101368.19;;;7.73;69.62
19508;BME280;40157;42.566;27.526;2023-03-14T07:57:46;101391.63;;;7.94;69.62
19508;BME280;40157;42.566;27.526;2023-03-14T07:59:47;101387.41;;;7.98;69.62
19508;BME280;40157;42.566;27.526;2023-03-14T08:01:47;101285.38;;;7.45;69.42
19508;BME280;40157;42.566;27.526;2023-03-14T08:03:47;101354.66;;;7.84;68.63
19508;BME280;40157;42.566;27.526;2023-03-14T08:05:49;101335.56;;;7.85;69.11
19508;BME280;40157;42.566;27.526;2023-03-14T08:07:50;101386.41;;;8.19;69.06
19508;BME280;40157;42.566;27.526;2023-03-14T08:09:51;101372.47;;;8.18;68.65
19508;BME280;40157;42.566;27.526;2023-03-14T08:11:51;101376.97;;;8.22;68.56
19508;BME280;40157;42.566;27.526;2023-03-14T08:13:51;101378.25;;;8.33;68.58
19508;BME280;40157;42.566;27.526;2023-03-14T08:15:52;101352.63;;;8.23;68.58
19508;BME280;40157;42.566;27.526;2023-03-14T08:17:52;101341.94;;;8.17;68.20
19508;BME280;40157;42.566;27.526;2023-03-14T08:19:54;101339.44;;;8.20;67.63
19508;BME280;40157;42.566;27.526;2023-03-14T08:21:54;101371.94;;;8.51;67.42
19508;BME280;40157;42.566;27.526;2023-03-14T08:23:55;101368.81;;;8.61;67.38
19508;BME280;40157;42.566;27.526;2023-03-14T08:25:55;101344.91;;;8.50;67.66
19508;BME280;40157;42.566;27.526;2023-03-14T08:27:56;101323.75;;;8.43;67.02
19508;BME280;40157;42.566;27.526;2023-03-14T08:29:56;101356.88;;;8.69;66.09
19508;BME280;40157;42.566;27.526;2023-03-14T08:31:57;101321.75;;;8.61;65.81
19508;BME280;40157;42.566;27.526;2023-03-14T08:34:01;101307.84;;;8.62;65.17
19508;BME280;40157;42.566;27.526;2023-03-14T08:36:02;101331.97;;;8.81;64.96
19508;BME280;40157;42.566;27.526;2023-03-14T08:38:02;101308.16;;;8.72;64.88
19508;BME280;40157;42.566;27.526;2023-03-14T08:40:04;101355.53;;;9.08;64.63
19508;BME280;40157;42.566;27.526;2023-03-14T08:42:06;101321.00;;;8.91;64.02
19508;BME280;40157;42.566;27.526;2023-03-14T08:44:07;101353.03;;;9.11;63.98
19508;BME280;40157;42.566;27.526;2023-03-14T08:46:08;101303.53;;;8.90;64.69
19508;BME280;40157;42.566;27.526;2023-03-14T08:48:09;101353.25;;;9.19;64.18
19508;BME280;40157;42.566;27.526;2023-03-14T08:50:10;101330.63;;;9.19;64.54
19508;BME280;40157;42.566;27.526;2023-03-14T08:52:11;101342.34;;;9.32;63.45
19508;BME280;40157;42.566;27.526;2023-03-14T08:54:12;101343.38;;;9.37;63.56
19508;BME280;40157;42.566;27.526;2023-03-14T08:56:12;101282.47;;;9.13;63.64
19508;BME280;40157;42.566;27.526;2023-03-14T08:58:13;101247.31;;;9.04;63.49
19508;BME280;40157;42.566;27.526;2023-03-14T09:00:14;101330.00;;;9.57;63.52
19508;BME280;40157;42.566;27.526;2023-03-14T09:02:15;101239.63;;;9.11;62.64
19508;BME280;40157;42.566;27.526;2023-03-14T09:04:16;101300.19;;;9.52;62.26
19508;BME280;40157;42.566;27.526;2023-03-14T09:06:16;101322.44;;;9.66;62.91
19508;BME280;40157;42.566;27.526;2023-03-14T09:08:19;101331.31;;;9.71;62.78
19508;BME280;40157;42.566;27.526;2023-03-14T09:10:20;101284.59;;;9.55;63.12
19508;BME280;40157;42.566;27.526;2023-03-14T09:12:20;101314.97;;;9.80;63.44
19508;BME280;40157;42.566;27.526;2023-03-14T09:14:21;101321.28;;;9.87;61.40
19508;BME280;40157;42.566;27.526;2023-03-14T09:16:22;101321.13;;;9.82;62.03
19508;BME280;40157;42.566;27.526;2023-03-14T09:18:22;101306.25;;;9.79;61.67
19508;BME280;40157;42.566;27.526;2023-03-14T09:20:23;101283.97;;;9.63;62.03
19508;BME280;40157;42.566;27.526;2023-03-14T09:22:23;101280.50;;;9.65;62.08
19508;BME280;40157;42.566;27.526;2023-03-14T09:24:24;101265.66;;;9.65;61.49
19508;BME280;40157;42.566;27.526;2023-03-14T09:26:24;101304.88;;;9.94;62.16
19508;BME280;40157;42.566;27.526;2023-03-14T09:28:25;101285.91;;;10.01;61.78
19508;BME280;40157;42.566;27.526;2023-03-14T09:30:26;101285.00;;;10.00;61.38
19508;BME280;40157;42.566;27.526;2023-03-14T09:32:26;101275.56;;;10.07;60.74
19508;BME280;40157;42.566;27.526;2023-03-14T09:34:27;101181.81;;;9.62;59.68
19508;BME280;40157;42.566;27.526;2023-03-14T09:36:27;101286.56;;;10.27;59.57
19508;BME280;40157;42.566;27.526;2023-03-14T09:38:28;101283.38;;;10.36;59.60
19508;BME280;40157;42.566;27.526;2023-03-14T09:40:32;101244.66;;;10.27;59.08
19508;BME280;40157;42.566;27.526;2023-03-14T09:42:36;101291.69;;;10.54;59.25
19508;BME280;40157;42.566;27.526;2023-03-14T09:44:45;101272.44;;;10.54;58.90
19508;BME280;40157;42.566;27.526;2023-03-14T09:46:52;101259.44;;;10.59;59.02
19508;BME280;40157;42.566;27.526;2023-03-14T09:48:53;101252.75;;;10.70;59.11
19508;BME280;40157;42.566;27.526;2023-03-14T09:50:55;101272.59;;;10.97;58.24
19508;BME280;40157;42.566;27.526;2023-03-14T09:53:02;101260.56;;;11.05;57.72
19508;BME280;40157;42.566;27.526;2023-03-14T09:57:08;101225.78;;;11.15;55.30
19508;BME280;40157;42.566;27.526;2023-03-14T09:59:12;101249.28;;;11.50;53.26
19508;BME280;40157;42.566;27.526;2023-03-14T10:01:16;101258.44;;;11.69;52.10
19508;BME280;40157;42.566;27.526;2023-03-14T10:03:35;101263.09;;;11.82;52.49
19508;BME280;40157;42.566;27.526;2023-03-14T10:05:35;101257.03;;;11.88;52.66
19508;BME280;40157;42.566;27.526;2023-03-14T10:07:36;101231.59;;;11.84;51.96
19508;BME280;40157;42.566;27.526;2023-03-14T10:09:38;101231.16;;;12.07;51.65
19508;BME280;40157;42.566;27.526;2023-03-14T10:11:39;101240.00;;;12.12;50.85
19508;BME280;40157;42.566;27.526;2023-03-14T10:15:55;101251.16;;;12.49;51.59
19508;BME280;40157;42.566;27.526;2023-03-14T10:18:00;101233.66;;;12.49;51.02
19508;BME280;40157;42.566;27.526;2023-03-14T10:20:01;101247.03;;;12.65;49.43
19508;BME280;40157;42.566;27.526;2023-03-14T10:22:04;101239.16;;;12.66;50.65
19508;BME280;40157;42.566;27.526;2023-03-14T10:24:10;101241.84;;;12.69;49.60
19508;BME280;40157;42.566;27.526;2023-03-14T10:26:16;101233.16;;;12.75;49.75
19508;BME280;40157;42.566;27.526;2023-03-14T10:28:28;101233.34;;;12.86;49.20
19508;BME280;40157;42.566;27.526;2023-03-14T10:30:45;101217.75;;;13.01;49.90
19508;BME280;40157;42.566;27.526;2023-03-14T10:32:46;101222.25;;;13.08;49.21
19508;BME280;40157;42.566;27.526;2023-03-14T10:37:17;101204.88;;;13.23;48.54
19508;BME280;40157;42.566;27.526;2023-03-14T10:39:25;101141.34;;;12.95;48.48
19508;BME280;40157;42.566;27.526;2023-03-14T10:41:30;101198.19;;;13.46;47.87
19508;BME280;40157;42.566;27.526;2023-03-14T10:43:35;101176.22;;;13.44;47.72
19508;BME280;40157;42.566;27.526;2023-03-14T10:45:41;101191.22;;;13.51;46.61